sensor_id;sensor_type;location;lat;lon;timestamp;P1;durP1;ratioP1;P2;durP2;ratioP2
39264;SDS011;42646;51.910;7.724;2023-02-28T00:01:09;6.50;;;4.80;;
39264;SDS011;42646;51.910;7.724;2023-02-28T00:03:38;6.90;;;4.43;;
39264;SDS011;42646;51.910;7.724;2023-02-28T00:06:07;8.00;;;5.05;;
39264;SDS011;42646;51.910;7.724;2023-02-28T00:08:35;7.93;;;4.38;;
39264;SDS011;42646;51.910;7.724;2023-02-28T00:11:05;6.90;;;4.13;;
39264;SDS011;42646;51.910;7.724;2023-02-28T00:13:36;9.88;;;4.53;;
39264;SDS011;42646;51.910;7.724;2023-02-28T00:16:06;8.35;;;4.38;;
39264;SDS011;42646;51.910;7.724;2023-02-28T00:18:36;6.85;;;4.47;;
39264;SDS011;42646;51.910;7.724;2023-02-28T00:21:05;6.80;;;3.83;;
39264;SDS011;42646;51.910;7.724;2023-02-28T00:23:34;6.82;;;3.90;;
39264;SDS011;42646;51.910;7.724;2023-02-28T00:26:04;6.72;;;4.13;;
39264;SDS011;42646;51.910;7.724;2023-02-28T00:28:32;7.13;;;4.25;;
39264;SDS011;42646;51.910;7.724;2023-02-28T00:31:00;11.43;;;4.80;;
39264;SDS011;42646;51.910;7.724;2023-02-28T00:33:28;7.40;;;4.25;;
39264;SDS011;42646;51.910;7.724;2023-02-28T00:36:03;8.52;;;4.30;;
39264;SDS011;42646;51.910;7.724;2023-02-28T00:38:34;8.38;;;4.90;;
39264;SDS011;42646;51.910;7.724;2023-02-28T00:41:02;5.82;;;3.92;;
39264;SDS011;42646;51.910;7.724;2023-02-28T00:43:33;7.18;;;4.50;;
39264;SDS011;42646;51.910;7.724;2023-02-28T00:46:06;7.53;;;4.30;;
39264;SDS011;42646;51.910;7.724;2023-02-28T00:48:34;7.22;;;4.65;;
39264;SDS011;42646;51.910;7.724;2023-02-28T00:51:03;6.55;;;4.20;;
39264;SDS011;42646;51.910;7.724;2023-02-28T00:53:31;9.20;;;4.20;;
39264;SDS011;42646;51.910;7.724;2023-02-28T00:56:00;7.45;;;3.83;;
39264;SDS011;42646;51.910;7.724;2023-02-28T00:58:28;8.25;;;4.63;;
39264;SDS011;42646;51.910;7.724;2023-02-28T01:00:57;6.72;;;4.28;;
39264;SDS011;42646;51.910;7.724;2023-02-28T01:03:25;9.35;;;4.70;;
39264;SDS011;42646;51.910;7.724;2023-02-28T01:05:53;7.15;;;4.85;;
39264;SDS011;42646;51.910;7.724;2023-02-28T01:08:20;9.68;;;4.88;;
39264;SDS011;42646;51.910;7.724;2023-02-28T01:10:49;8.07;;;4.60;;
39264;SDS011;42646;51.910;7.724;2023-02-28T01:13:17;8.07;;;4.82;;
39264;SDS011;42646;51.910;7.724;2023-02-28T01:15:46;8.85;;;5.32;;
39264;SDS011;42646;51.910;7.724;2023-02-28T01:18:19;9.02;;;4.97;;
39264;SDS011;42646;51.910;7.724;2023-02-28T01:20:47;9.27;;;5.45;;
39264;SDS011;42646;51.910;7.724;2023-02-28T01:23:15;8.88;;;5.63;;
39264;SDS011;42646;51.910;7.724;2023-02-28T01:25:43;9.93;;;5.25;;
39264;SDS011;42646;51.910;7.724;2023-02-28T01:28:10;10.52;;;5.97;;
39264;SDS011;42646;51.910;7.724;2023-02-28T01:30:38;9.73;;;5.50;;
39264;SDS011;42646;51.910;7.724;2023-02-28T01:33:06;9.63;;;5.40;;
39264;SDS011;42646;51.910;7.724;2023-02-28T01:35:36;8.95;;;5.20;;
39264;SDS011;42646;51.910;7.724;2023-02-28T01:38:04;10.20;;;5.78;;
39264;SDS011;42646;51.910;7.724;2023-02-28T01:40:47;10.32;;;5.57;;
39264;SDS011;42646;51.910;7.724;2023-02-28T01:43:16;11.20;;;5.40;;
39264;SDS011;42646;51.910;7.724;2023-02-28T01:45:47;10.07;;;5.60;;
39264;SDS011;42646;51.910;7.724;2023-02-28T01:48:15;8.60;;;5.40;;
39264;SDS011;42646;51.910;7.724;2023-02-28T01:50:46;8.05;;;5.13;;
39264;SDS011;42646;51.910;7.724;2023-02-28T01:53:17;7.95;;;5.30;;
39264;SDS011;42646;51.910;7.724;2023-02-28T01:58:19;8.18;;;4.78;;
39264;SDS011;42646;51.910;7.724;2023-02-28T02:00:47;8.65;;;4.80;;
39264;SDS011;42646;51.910;7.724;2023-02-28T02:03:16;8.65;;;5.40;;
39264;SDS011;42646;51.910;7.724;2023-02-28T02:05:49;12.52;;;5.38;;
39264;SDS011;42646;51.910;7.724;2023-02-28T02:08:19;8.80;;;5.30;;
39264;SDS011;42646;51.910;7.724;2023-02-28T02:10:50;8.52;;;5.03;;
39264;SDS011;42646;51.910;7.724;2023-02-28T02:13:27;8.80;;;5.28;;
39264;SDS011;42646;51.910;7.724;2023-02-28T02:16:08;9.75;;;5.80;;
39264;SDS011;42646;51.910;7.724;2023-02-28T02:18:48;9.70;;;5.97;;
39264;SDS011;42646;51.910;7.724;2023-02-28T02:27:20;9.88;;;5.60;;
39264;SDS011;42646;51.910;7.724;2023-02-28T02:30:14;9.70;;;5.25;;
39264;SDS011;42646;51.910;7.724;2023-02-28T02:32:58;8.57;;;5.40;;
39264;SDS011;42646;51.910;7.724;2023-02-28T02:35:36;9.50;;;5.03;;
39264;SDS011;42646;51.910;7.724;2023-02-28T02:38:09;8.00;;;5.68;;
39264;SDS011;42646;51.910;7.724;2023-02-28T02:40:46;8.70;;;5.20;;
39264;SDS011;42646;51.910;7.724;2023-02-28T02:43:22;8.93;;;5.32;;
39264;SDS011;42646;51.910;7.724;2023-02-28T02:45:55;9.18;;;5.38;;
39264;SDS011;42646;51.910;7.724;2023-02-28T02:48:29;9.73;;;5.20;;
39264;SDS011;42646;51.910;7.724;2023-02-28T02:51:01;8.70;;;5.17;;
39264;SDS011;42646;51.910;7.724;2023-02-28T02:53:33;8.10;;;5.03;;
39264;SDS011;42646;51.910;7.724;2023-02-28T02:56:30;8.57;;;4.47;;
39264;SDS011;42646;51.910;7.724;2023-02-28T02:59:26;8.43;;;4.70;;
39264;SDS011;42646;51.910;7.724;2023-02-28T03:01:56;9.48;;;4.80;;
39264;SDS011;42646;51.910;7.724;2023-02-28T03:04:28;8.10;;;4.97;;
39264;SDS011;42646;51.910;7.724;2023-02-28T03:07:01;8.50;;;4.95;;
39264;SDS011;42646;51.910;7.724;2023-02-28T03:09:32;8.38;;;4.80;;
39264;SDS011;42646;51.910;7.724;2023-02-28T03:12:06;9.07;;;4.78;;
39264;SDS011;42646;51.910;7.724;2023-02-28T03:14:44;6.72;;;4.53;;
39264;SDS011;42646;51.910;7.724;2023-02-28T03:20:21;9.23;;;5.10;;
39264;SDS011;42646;51.910;7.724;2023-02-28T03:23:03;9.65;;;4.95;;
39264;SDS011;42646;51.910;7.724;2023-02-28T03:25:45;10.27;;;5.53;;
39264;SDS011;42646;51.910;7.724;2023-02-28T03:28:24;10.55;;;5.25;;
39264;SDS011;42646;51.910;7.724;2023-02-28T03:30:59;9.55;;;4.95;;
39264;SDS011;42646;51.910;7.724;2023-02-28T03:33:36;9.90;;;5.10;;
39264;SDS011;42646;51.910;7.724;2023-02-28T03:36:10;7.00;;;4.70;;
39264;SDS011;42646;51.910;7.724;2023-02-28T03:38:43;8.27;;;4.70;;
39264;SDS011;42646;51.910;7.724;2023-02-28T03:41:15;8.68;;;4.75;;
39264;SDS011;42646;51.910;7.724;2023-02-28T03:43:53;8.48;;;5.00;;
39264;SDS011;42646;51.910;7.724;2023-02-28T03:46:26;7.97;;;4.70;;
39264;SDS011;42646;51.910;7.724;2023-02-28T03:49:00;8.80;;;5.18;;
39264;SDS011;42646;51.910;7.724;2023-02-28T03:51:31;9.32;;;4.60;;
39264;SDS011;42646;51.910;7.724;2023-02-28T03:54:04;9.75;;;5.68;;
39264;SDS011;42646;51.910;7.724;2023-02-28T03:56:37;8.90;;;4.50;;
39264;SDS011;42646;51.910;7.724;2023-02-28T03:59:09;7.93;;;5.57;;
39264;SDS011;42646;51.910;7.724;2023-02-28T04:01:42;8.68;;;4.95;;
39264;SDS011;42646;51.910;7.724;2023-02-28T04:04:12;8.82;;;4.82;;
39264;SDS011;42646;51.910;7.724;2023-02-28T04:06:41;8.48;;;5.20;;
39264;SDS011;42646;51.910;7.724;2023-02-28T04:09:12;8.65;;;5.15;;
39264;SDS011;42646;51.910;7.724;2023-02-28T04:11:41;8.23;;;4.82;;
39264;SDS011;42646;51.910;7.724;2023-02-28T04:14:12;8.32;;;4.97;;
39264;SDS011;42646;51.910;7.724;2023-02-28T04:16:41;7.72;;;4.63;;
39264;SDS011;42646;51.910;7.724;2023-02-28T04:19:11;8.88;;;5.03;;
39264;SDS011;42646;51.910;7.724;2023-02-28T04:21:41;8.13;;;4.85;;
39264;SDS011;42646;51.910;7.724;2023-02-28T04:24:16;8.00;;;4.60;;
39264;SDS011;42646;51.910;7.724;2023-02-28T04:26:46;9.30;;;5.35;;
39264;SDS011;42646;51.910;7.724;2023-02-28T04:29:18;9.32;;;4.75;;
39264;SDS011;42646;51.910;7.724;2023-02-28T04:31:48;8.02;;;5.13;;
39264;SDS011;42646;51.910;7.724;2023-02-28T04:34:16;8.27;;;4.68;;
39264;SDS011;42646;51.910;7.724;2023-02-28T04:36:45;7.82;;;4.70;;
39264;SDS011;42646;51.910;7.724;2023-02-28T04:39:39;9.18;;;5.00;;
39264;SDS011;42646;51.910;7.724;2023-02-28T04:42:09;8.73;;;5.32;;
39264;SDS011;42646;51.910;7.724;2023-02-28T04:44:38;6.90;;;4.50;;
39264;SDS011;42646;51.910;7.724;2023-02-28T04:47:05;9.13;;;4.95;;
39264;SDS011;42646;51.910;7.724;2023-02-28T04:49:33;7.13;;;4.35;;
39264;SDS011;42646;51.910;7.724;2023-02-28T04:52:02;7.53;;;4.50;;
39264;SDS011;42646;51.910;7.724;2023-02-28T04:54:30;7.03;;;4.43;;
39264;SDS011;42646;51.910;7.724;2023-02-28T04:56:59;8.88;;;4.80;;
39264;SDS011;42646;51.910;7.724;2023-02-28T04:59:27;8.02;;;5.40;;
39264;SDS011;42646;51.910;7.724;2023-02-28T05:01:57;8.13;;;4.97;;
39264;SDS011;42646;51.910;7.724;2023-02-28T05:04:25;7.90;;;4.70;;
39264;SDS011;42646;51.910;7.724;2023-02-28T05:09:45;6.82;;;4.43;;
39264;SDS011;42646;51.910;7.724;2023-02-28T05:12:14;8.57;;;4.63;;
39264;SDS011;42646;51.910;7.724;2023-02-28T05:14:43;8.25;;;4.72;;
39264;SDS011;42646;51.910;7.724;2023-02-28T05:17:11;6.35;;;4.22;;
39264;SDS011;42646;51.910;7.724;2023-02-28T05:19:39;8.45;;;5.20;;
39264;SDS011;42646;51.910;7.724;2023-02-28T05:22:12;9.85;;;5.10;;
39264;SDS011;42646;51.910;7.724;2023-02-28T05:24:40;7.68;;;4.63;;
39264;SDS011;42646;51.910;7.724;2023-02-28T05:27:09;7.60;;;4.65;;
39264;SDS011;42646;51.910;7.724;2023-02-28T05:29:38;7.63;;;4.72;;
39264;SDS011;42646;51.910;7.724;2023-02-28T05:32:14;8.77;;;5.07;;
39264;SDS011;42646;51.910;7.724;2023-02-28T05:34:42;7.85;;;4.80;;
39264;SDS011;42646;51.910;7.724;2023-02-28T05:37:13;7.40;;;4.88;;
39264;SDS011;42646;51.910;7.724;2023-02-28T05:39:42;7.65;;;5.10;;
39264;SDS011;42646;51.910;7.724;2023-02-28T05:42:10;8.98;;;4.90;;
39264;SDS011;42646;51.910;7.724;2023-02-28T05:44:39;8.25;;;4.78;;
39264;SDS011;42646;51.910;7.724;2023-02-28T05:47:31;8.77;;;4.88;;
39264;SDS011;42646;51.910;7.724;2023-02-28T05:49:59;10.30;;;4.55;;
39264;SDS011;42646;51.910;7.724;2023-02-28T05:52:27;10.20;;;5.18;;
39264;SDS011;42646;51.910;7.724;2023-02-28T05:54:56;8.13;;;4.90;;
39264;SDS011;42646;51.910;7.724;2023-02-28T05:57:23;8.93;;;4.75;;
39264;SDS011;42646;51.910;7.724;2023-02-28T05:59:54;9.77;;;4.57;;
39264;SDS011;42646;51.910;7.724;2023-02-28T06:02:22;9.85;;;4.60;;
39264;SDS011;42646;51.910;7.724;2023-02-28T06:04:50;7.18;;;4.65;;
39264;SDS011;42646;51.910;7.724;2023-02-28T06:07:17;8.35;;;4.43;;
39264;SDS011;42646;51.910;7.724;2023-02-28T06:09:45;8.75;;;4.55;;
39264;SDS011;42646;51.910;7.724;2023-02-28T06:12:13;7.30;;;4.35;;
39264;SDS011;42646;51.910;7.724;2023-02-28T06:14:40;8.77;;;5.07;;
39264;SDS011;42646;51.910;7.724;2023-02-28T06:17:33;7.95;;;4.82;;
39264;SDS011;42646;51.910;7.724;2023-02-28T06:20:01;10.20;;;5.30;;
39264;SDS011;42646;51.910;7.724;2023-02-28T06:22:29;8.60;;;5.20;;
39264;SDS011;42646;51.910;7.724;2023-02-28T06:24:58;8.13;;;4.90;;
39264;SDS011;42646;51.910;7.724;2023-02-28T06:27:26;9.88;;;4.65;;
39264;SDS011;42646;51.910;7.724;2023-02-28T06:29:54;7.85;;;5.03;;
39264;SDS011;42646;51.910;7.724;2023-02-28T06:32:22;9.88;;;5.32;;
39264;SDS011;42646;51.910;7.724;2023-02-28T06:34:52;8.18;;;5.28;;
39264;SDS011;42646;51.910;7.724;2023-02-28T06:37:21;8.35;;;5.38;;
39264;SDS011;42646;51.910;7.724;2023-02-28T06:39:52;7.07;;;4.90;;
39264;SDS011;42646;51.910;7.724;2023-02-28T06:42:22;8.65;;;5.30;;
39264;SDS011;42646;51.910;7.724;2023-02-28T06:44:51;8.57;;;5.25;;
39264;SDS011;42646;51.910;7.724;2023-02-28T06:47:19;9.10;;;4.93;;
39264;SDS011;42646;51.910;7.724;2023-02-28T06:49:47;6.93;;;4.93;;
39264;SDS011;42646;51.910;7.724;2023-02-28T06:52:17;9.45;;;4.90;;
39264;SDS011;42646;51.910;7.724;2023-02-28T06:54:44;6.85;;;4.47;;
39264;SDS011;42646;51.910;7.724;2023-02-28T06:57:12;9.05;;;4.78;;
39264;SDS011;42646;51.910;7.724;2023-02-28T06:59:39;7.80;;;4.57;;
39264;SDS011;42646;51.910;7.724;2023-02-28T07:02:07;8.75;;;5.15;;
39264;SDS011;42646;51.910;7.724;2023-02-28T07:04:35;7.53;;;5.00;;
39264;SDS011;42646;51.910;7.724;2023-02-28T07:07:03;8.07;;;5.13;;
39264;SDS011;42646;51.910;7.724;2023-02-28T07:09:32;8.27;;;5.20;;
39264;SDS011;42646;51.910;7.724;2023-02-28T07:12:00;7.30;;;4.97;;
39264;SDS011;42646;51.910;7.724;2023-02-28T07:14:28;8.30;;;4.95;;
39264;SDS011;42646;51.910;7.724;2023-02-28T07:16:56;8.35;;;5.43;;
39264;SDS011;42646;51.910;7.724;2023-02-28T07:19:24;6.97;;;5.03;;
39264;SDS011;42646;51.910;7.724;2023-02-28T07:21:54;8.55;;;5.63;;
39264;SDS011;42646;51.910;7.724;2023-02-28T07:24:21;10.95;;;5.18;;
39264;SDS011;42646;51.910;7.724;2023-02-28T07:29:22;10.88;;;5.05;;
39264;SDS011;42646;51.910;7.724;2023-02-28T07:31:50;10.85;;;5.78;;
39264;SDS011;42646;51.910;7.724;2023-02-28T07:34:42;10.18;;;5.40;;
39264;SDS011;42646;51.910;7.724;2023-02-28T07:37:10;9.20;;;5.35;;
39264;SDS011;42646;51.910;7.724;2023-02-28T07:39:38;8.27;;;4.53;;
39264;SDS011;42646;51.910;7.724;2023-02-28T07:42:12;8.13;;;4.82;;
39264;SDS011;42646;51.910;7.724;2023-02-28T07:44:40;7.45;;;4.80;;
39264;SDS011;42646;51.910;7.724;2023-02-28T07:47:09;8.55;;;4.47;;
39264;SDS011;42646;51.910;7.724;2023-02-28T07:49:37;11.60;;;5.20;;
39264;SDS011;42646;51.910;7.724;2023-02-28T07:52:06;8.27;;;5.10;;
39264;SDS011;42646;51.910;7.724;2023-02-28T07:54:38;7.70;;;4.50;;
39264;SDS011;42646;51.910;7.724;2023-02-28T07:57:09;8.95;;;5.32;;
39264;SDS011;42646;51.910;7.724;2023-02-28T07:59:38;6.65;;;4.30;;
39264;SDS011;42646;51.910;7.724;2023-02-28T08:02:06;9.13;;;4.57;;
39264;SDS011;42646;51.910;7.724;2023-02-28T08:04:34;6.10;;;3.95;;
39264;SDS011;42646;51.910;7.724;2023-02-28T08:07:02;7.07;;;4.70;;
39264;SDS011;42646;51.910;7.724;2023-02-28T08:09:30;7.00;;;4.18;;
39264;SDS011;42646;51.910;7.724;2023-02-28T08:11:58;6.50;;;4.13;;
39264;SDS011;42646;51.910;7.724;2023-02-28T08:14:26;7.15;;;4.03;;
39264;SDS011;42646;51.910;7.724;2023-02-28T08:16:55;5.85;;;3.75;;
39264;SDS011;42646;51.910;7.724;2023-02-28T08:19:22;5.32;;;3.10;;
39264;SDS011;42646;51.910;7.724;2023-02-28T08:21:50;6.57;;;3.58;;
39264;SDS011;42646;51.910;7.724;2023-02-28T08:24:18;4.93;;;3.22;;
39264;SDS011;42646;51.910;7.724;2023-02-28T08:26:46;6.50;;;3.42;;
39264;SDS011;42646;51.910;7.724;2023-02-28T08:29:14;5.25;;;3.30;;
39264;SDS011;42646;51.910;7.724;2023-02-28T08:31:42;4.68;;;3.22;;
39264;SDS011;42646;51.910;7.724;2023-02-28T08:34:13;6.75;;;3.58;;
39264;SDS011;42646;51.910;7.724;2023-02-28T08:36:42;4.97;;;3.75;;
39264;SDS011;42646;51.910;7.724;2023-02-28T08:39:11;5.28;;;3.17;;
39264;SDS011;42646;51.910;7.724;2023-02-28T08:41:39;5.30;;;3.28;;
39264;SDS011;42646;51.910;7.724;2023-02-28T08:44:08;5.40;;;3.30;;
39264;SDS011;42646;51.910;7.724;2023-02-28T08:46:37;6.35;;;3.15;;
39264;SDS011;42646;51.910;7.724;2023-02-28T08:49:05;5.85;;;3.47;;
39264;SDS011;42646;51.910;7.724;2023-02-28T08:51:34;5.00;;;3.15;;
39264;SDS011;42646;51.910;7.724;2023-02-28T08:54:02;5.45;;;2.80;;
39264;SDS011;42646;51.910;7.724;2023-02-28T08:56:30;5.38;;;2.95;;
39264;SDS011;42646;51.910;7.724;2023-02-28T08:58:58;4.65;;;2.35;;
39264;SDS011;42646;51.910;7.724;2023-02-28T09:01:27;4.65;;;2.42;;
39264;SDS011;42646;51.910;7.724;2023-02-28T09:03:56;3.47;;;2.33;;
39264;SDS011;42646;51.910;7.724;2023-02-28T09:06:25;4.57;;;2.58;;
39264;SDS011;42646;51.910;7.724;2023-02-28T09:08:57;3.83;;;2.00;;
39264;SDS011;42646;51.910;7.724;2023-02-28T09:11:25;4.05;;;2.10;;
39264;SDS011;42646;51.910;7.724;2023-02-28T09:13:57;4.93;;;2.20;;
39264;SDS011;42646;51.910;7.724;2023-02-28T09:16:26;3.67;;;2.17;;
39264;SDS011;42646;51.910;7.724;2023-02-28T09:18:54;4.43;;;2.17;;
39264;SDS011;42646;51.910;7.724;2023-02-28T09:21:22;3.80;;;2.10;;
39264;SDS011;42646;51.910;7.724;2023-02-28T09:23:54;4.22;;;1.92;;
39264;SDS011;42646;51.910;7.724;2023-02-28T09:26:23;3.58;;;1.90;;
39264;SDS011;42646;51.910;7.724;2023-02-28T09:29:08;3.13;;;1.80;;
39264;SDS011;42646;51.910;7.724;2023-02-28T09:31:36;4.22;;;2.13;;
39264;SDS011;42646;51.910;7.724;2023-02-28T09:34:07;4.40;;;1.90;;
39264;SDS011;42646;51.910;7.724;2023-02-28T09:36:37;3.88;;;2.00;;
39264;SDS011;42646;51.910;7.724;2023-02-28T09:39:10;3.30;;;1.80;;
39264;SDS011;42646;51.910;7.724;2023-02-28T09:41:41;3.08;;;2.00;;
39264;SDS011;42646;51.910;7.724;2023-02-28T09:44:16;3.25;;;1.65;;
39264;SDS011;42646;51.910;7.724;2023-02-28T09:46:49;3.65;;;2.05;;
39264;SDS011;42646;51.910;7.724;2023-02-28T09:49:23;4.15;;;1.70;;
39264;SDS011;42646;51.910;7.724;2023-02-28T09:51:55;3.65;;;1.77;;
39264;SDS011;42646;51.910;7.724;2023-02-28T09:54:27;2.90;;;1.60;;
39264;SDS011;42646;51.910;7.724;2023-02-28T09:56:59;4.10;;;1.43;;
39264;SDS011;42646;51.910;7.724;2023-02-28T09:59:36;3.53;;;1.70;;
39264;SDS011;42646;51.910;7.724;2023-02-28T10:02:13;3.63;;;1.58;;
39264;SDS011;42646;51.910;7.724;2023-02-28T10:04:50;4.07;;;1.67;;
39264;SDS011;42646;51.910;7.724;2023-02-28T10:07:28;2.97;;;1.60;;
39264;SDS011;42646;51.910;7.724;2023-02-28T10:10:15;4.53;;;1.80;;
39264;SDS011;42646;51.910;7.724;2023-02-28T10:12:50;4.50;;;1.95;;
39264;SDS011;42646;51.910;7.724;2023-02-28T10:17:54;3.10;;;1.80;;
39264;SDS011;42646;51.910;7.724;2023-02-28T10:20:35;3.05;;;1.45;;
39264;SDS011;42646;51.910;7.724;2023-02-28T10:23:09;2.65;;;1.50;;
39264;SDS011;42646;51.910;7.724;2023-02-28T10:25:44;4.38;;;1.60;;
39264;SDS011;42646;51.910;7.724;2023-02-28T10:28:25;3.65;;;1.65;;
39264;SDS011;42646;51.910;7.724;2023-02-28T10:30:57;3.33;;;1.50;;
39264;SDS011;42646;51.910;7.724;2023-02-28T10:33:28;2.88;;;1.70;;
39264;SDS011;42646;51.910;7.724;2023-02-28T10:35:58;4.20;;;1.73;;
39264;SDS011;42646;51.910;7.724;2023-02-28T10:38:31;3.80;;;1.80;;
39264;SDS011;42646;51.910;7.724;2023-02-28T10:41:28;4.60;;;2.00;;
39264;SDS011;42646;51.910;7.724;2023-02-28T10:46:50;3.72;;;2.00;;
39264;SDS011;42646;51.910;7.724;2023-02-28T10:49:20;3.78;;;1.88;;
39264;SDS011;42646;51.910;7.724;2023-02-28T10:51:50;3.25;;;1.70;;
39264;SDS011;42646;51.910;7.724;2023-02-28T10:54:24;3.10;;;1.90;;
39264;SDS011;42646;51.910;7.724;2023-02-28T10:57:05;3.13;;;1.75;;
39264;SDS011;42646;51.910;7.724;2023-02-28T10:59:44;3.10;;;2.00;;
39264;SDS011;42646;51.910;7.724;2023-02-28T11:02:28;2.60;;;1.73;;
39264;SDS011;42646;51.910;7.724;2023-02-28T11:07:51;3.22;;;1.85;;
39264;SDS011;42646;51.910;7.724;2023-02-28T11:10:21;3.22;;;1.58;;
39264;SDS011;42646;51.910;7.724;2023-02-28T11:12:54;5.43;;;1.83;;
39264;SDS011;42646;51.910;7.724;2023-02-28T11:15:28;2.65;;;1.52;;
39264;SDS011;42646;51.910;7.724;2023-02-28T11:17:57;3.10;;;1.67;;
39264;SDS011;42646;51.910;7.724;2023-02-28T11:20:28;3.03;;;1.60;;
39264;SDS011;42646;51.910;7.724;2023-02-28T11:22:58;4.50;;;1.90;;
39264;SDS011;42646;51.910;7.724;2023-02-28T11:25:30;3.10;;;1.83;;
39264;SDS011;42646;51.910;7.724;2023-02-28T11:28:01;4.35;;;1.52;;
39264;SDS011;42646;51.910;7.724;2023-02-28T11:30:35;2.72;;;1.60;;
39264;SDS011;42646;51.910;7.724;2023-02-28T11:33:18;3.47;;;1.60;;
39264;SDS011;42646;51.910;7.724;2023-02-28T11:35:50;4.15;;;1.50;;
39264;SDS011;42646;51.910;7.724;2023-02-28T11:38:19;2.75;;;1.60;;
39264;SDS011;42646;51.910;7.724;2023-02-28T11:40:48;4.32;;;1.60;;
39264;SDS011;42646;51.910;7.724;2023-02-28T11:43:30;3.90;;;1.70;;
39264;SDS011;42646;51.910;7.724;2023-02-28T11:46:15;2.67;;;1.60;;
39264;SDS011;42646;51.910;7.724;2023-02-28T11:48:53;2.70;;;1.50;;
39264;SDS011;42646;51.910;7.724;2023-02-28T11:51:32;2.92;;;1.67;;
39264;SDS011;42646;51.910;7.724;2023-02-28T11:54:08;4.47;;;1.85;;
39264;SDS011;42646;51.910;7.724;2023-02-28T11:56:53;4.97;;;2.10;;
39264;SDS011;42646;51.910;7.724;2023-02-28T11:59:37;3.75;;;1.88;;
39264;SDS011;42646;51.910;7.724;2023-02-28T12:02:26;3.17;;;1.80;;
39264;SDS011;42646;51.910;7.724;2023-02-28T12:05:01;4.97;;;2.00;;
39264;SDS011;42646;51.910;7.724;2023-02-28T12:07:47;3.85;;;2.10;;
39264;SDS011;42646;51.910;7.724;2023-02-28T12:10:25;4.18;;;2.10;;
39264;SDS011;42646;51.910;7.724;2023-02-28T12:13:00;4.35;;;2.08;;
39264;SDS011;42646;51.910;7.724;2023-02-28T12:15:38;4.90;;;1.98;;
39264;SDS011;42646;51.910;7.724;2023-02-28T12:18:27;3.70;;;2.15;;
39264;SDS011;42646;51.910;7.724;2023-02-28T12:21:11;4.18;;;2.33;;
39264;SDS011;42646;51.910;7.724;2023-02-28T12:26:50;4.18;;;2.30;;
39264;SDS011;42646;51.910;7.724;2023-02-28T12:29:21;3.53;;;2.30;;
39264;SDS011;42646;51.910;7.724;2023-02-28T12:31:55;3.33;;;2.08;;
39264;SDS011;42646;51.910;7.724;2023-02-28T12:34:30;4.05;;;2.20;;
39264;SDS011;42646;51.910;7.724;2023-02-28T12:37:03;3.83;;;2.20;;
39264;SDS011;42646;51.910;7.724;2023-02-28T12:39:36;4.03;;;2.22;;
39264;SDS011;42646;51.910;7.724;2023-02-28T12:42:17;3.63;;;2.28;;
39264;SDS011;42646;51.910;7.724;2023-02-28T12:44:51;3.70;;;2.25;;
39264;SDS011;42646;51.910;7.724;2023-02-28T12:47:24;4.85;;;2.20;;
39264;SDS011;42646;51.910;7.724;2023-02-28T12:49:56;4.85;;;2.60;;
39264;SDS011;42646;51.910;7.724;2023-02-28T12:52:29;3.78;;;2.38;;
39264;SDS011;42646;51.910;7.724;2023-02-28T12:55:04;3.90;;;2.20;;
39264;SDS011;42646;51.910;7.724;2023-02-28T12:57:40;4.05;;;2.47;;
39264;SDS011;42646;51.910;7.724;2023-02-28T13:00:16;4.07;;;2.20;;
39264;SDS011;42646;51.910;7.724;2023-02-28T13:02:51;3.70;;;2.13;;
39264;SDS011;42646;51.910;7.724;2023-02-28T13:05:53;4.57;;;2.35;;
39264;SDS011;42646;51.910;7.724;2023-02-28T13:11:28;3.35;;;1.90;;
39264;SDS011;42646;51.910;7.724;2023-02-28T13:13:58;3.45;;;2.15;;
39264;SDS011;42646;51.910;7.724;2023-02-28T13:19:22;3.17;;;1.70;;
39264;SDS011;42646;51.910;7.724;2023-02-28T13:21:53;3.72;;;1.90;;
39264;SDS011;42646;51.910;7.724;2023-02-28T13:27:25;2.80;;;1.70;;
39264;SDS011;42646;51.910;7.724;2023-02-28T13:30:00;3.45;;;1.90;;
39264;SDS011;42646;51.910;7.724;2023-02-28T13:32:33;2.85;;;1.83;;
39264;SDS011;42646;51.910;7.724;2023-02-28T13:38:21;2.83;;;1.80;;
39264;SDS011;42646;51.910;7.724;2023-02-28T13:40:52;3.70;;;1.90;;
39264;SDS011;42646;51.910;7.724;2023-02-28T13:43:20;3.55;;;1.90;;
39264;SDS011;42646;51.910;7.724;2023-02-28T13:46:11;6.07;;;1.92;;
39264;SDS011;42646;51.910;7.724;2023-02-28T13:48:39;4.47;;;1.75;;
39264;SDS011;42646;51.910;7.724;2023-02-28T13:54:16;3.00;;;1.80;;
39264;SDS011;42646;51.910;7.724;2023-02-28T13:59:34;3.33;;;1.85;;
39264;SDS011;42646;51.910;7.724;2023-02-28T14:02:23;4.57;;;2.05;;
39264;SDS011;42646;51.910;7.724;2023-02-28T14:07:37;4.90;;;2.13;;
39264;SDS011;42646;51.910;7.724;2023-02-28T14:10:20;4.65;;;1.90;;
39264;SDS011;42646;51.910;7.724;2023-02-28T14:15:39;4.75;;;2.05;;
39264;SDS011;42646;51.910;7.724;2023-02-28T14:21:07;3.58;;;1.90;;
39264;SDS011;42646;51.910;7.724;2023-02-28T14:23:43;5.65;;;1.92;;
39264;SDS011;42646;51.910;7.724;2023-02-28T14:26:29;4.82;;;2.08;;
39264;SDS011;42646;51.910;7.724;2023-02-28T14:29:16;4.63;;;2.00;;
39264;SDS011;42646;51.910;7.724;2023-02-28T14:31:54;4.00;;;1.90;;
39264;SDS011;42646;51.910;7.724;2023-02-28T14:34:32;4.25;;;1.90;;
39264;SDS011;42646;51.910;7.724;2023-02-28T14:37:09;4.18;;;2.20;;
39264;SDS011;42646;51.910;7.724;2023-02-28T14:39:41;3.38;;;1.95;;
39264;SDS011;42646;51.910;7.724;2023-02-28T14:42:27;4.13;;;2.20;;
39264;SDS011;42646;51.910;7.724;2023-02-28T14:44:57;3.50;;;1.98;;
39264;SDS011;42646;51.910;7.724;2023-02-28T14:47:27;4.28;;;2.17;;
39264;SDS011;42646;51.910;7.724;2023-02-28T14:49:59;4.53;;;2.05;;
39264;SDS011;42646;51.910;7.724;2023-02-28T14:52:30;3.20;;;2.00;;
39264;SDS011;42646;51.910;7.724;2023-02-28T14:55:00;4.55;;;2.00;;
39264;SDS011;42646;51.910;7.724;2023-02-28T14:57:32;5.80;;;2.22;;
39264;SDS011;42646;51.910;7.724;2023-02-28T15:00:03;5.13;;;2.03;;
39264;SDS011;42646;51.910;7.724;2023-02-28T15:02:37;3.58;;;2.10;;
39264;SDS011;42646;51.910;7.724;2023-02-28T15:05:16;3.80;;;2.17;;
39264;SDS011;42646;51.910;7.724;2023-02-28T15:08:02;3.80;;;2.30;;
39264;SDS011;42646;51.910;7.724;2023-02-28T15:10:32;5.45;;;2.10;;
39264;SDS011;42646;51.910;7.724;2023-02-28T15:13:04;3.97;;;2.00;;
39264;SDS011;42646;51.910;7.724;2023-02-28T15:15:35;3.90;;;2.20;;
39264;SDS011;42646;51.910;7.724;2023-02-28T15:18:30;4.00;;;2.42;;
39264;SDS011;42646;51.910;7.724;2023-02-28T15:21:06;4.30;;;2.15;;
39264;SDS011;42646;51.910;7.724;2023-02-28T15:23:38;3.30;;;2.00;;
39264;SDS011;42646;51.910;7.724;2023-02-28T15:26:12;3.83;;;1.95;;
39264;SDS011;42646;51.910;7.724;2023-02-28T15:28:44;3.60;;;2.10;;
39264;SDS011;42646;51.910;7.724;2023-02-28T15:31:20;3.20;;;2.10;;
39264;SDS011;42646;51.910;7.724;2023-02-28T15:33:52;3.38;;;2.17;;
39264;SDS011;42646;51.910;7.724;2023-02-28T15:36:21;6.45;;;2.15;;
39264;SDS011;42646;51.910;7.724;2023-02-28T15:38:54;4.13;;;2.00;;
39264;SDS011;42646;51.910;7.724;2023-02-28T15:41:35;5.07;;;2.10;;
39264;SDS011;42646;51.910;7.724;2023-02-28T15:44:23;3.38;;;2.10;;
39264;SDS011;42646;51.910;7.724;2023-02-28T15:46:54;4.47;;;2.13;;
39264;SDS011;42646;51.910;7.724;2023-02-28T15:49:25;6.13;;;2.45;;
39264;SDS011;42646;51.910;7.724;2023-02-28T15:51:53;4.30;;;2.20;;
39264;SDS011;42646;51.910;7.724;2023-02-28T15:54:27;4.65;;;2.10;;
39264;SDS011;42646;51.910;7.724;2023-02-28T15:56:57;3.45;;;2.00;;
39264;SDS011;42646;51.910;7.724;2023-02-28T15:59:32;4.70;;;2.47;;
39264;SDS011;42646;51.910;7.724;2023-02-28T16:02:11;3.67;;;2.13;;
39264;SDS011;42646;51.910;7.724;2023-02-28T16:04:57;4.03;;;2.30;;
39264;SDS011;42646;51.910;7.724;2023-02-28T16:07:27;4.45;;;2.25;;
39264;SDS011;42646;51.910;7.724;2023-02-28T16:09:56;4.50;;;2.10;;
39264;SDS011;42646;51.910;7.724;2023-02-28T16:12:25;5.80;;;2.53;;
39264;SDS011;42646;51.910;7.724;2023-02-28T16:14:58;3.88;;;2.13;;